sensor_id;sensor_type;location;lat;lon;timestamp;temperature;humidity
18309;DHT22;9280;50.276;18.650;2022-11-14T00:02:29;4.80;99.90
18309;DHT22;9280;50.276;18.650;2022-11-14T00:05:37;4.80;99.90
18309;DHT22;9280;50.276;18.650;2022-11-14T00:08:42;4.70;99.90
18309;DHT22;9280;50.276;18.650;2022-11-14T00:11:47;4.70;99.90
18309;DHT22;9280;50.276;18.650;2022-11-14T00:14:56;4.70;99.90
18309;DHT22;9280;50.276;18.650;2022-11-14T00:18:01;4.60;99.90
18309;DHT22;9280;50.276;18.650;2022-11-14T00:21:06;4.60;99.90
18309;DHT22;9280;50.276;18.650;2022-11-14T00:24:11;4.60;99.90
18309;DHT22;9280;50.276;18.650;2022-11-14T00:27:15;4.60;99.90
18309;DHT22;9280;50.276;18.650;2022-11-14T00:30:21;4.50;99.90
18309;DHT22;9280;50.276;18.650;2022-11-14T00:33:26;4.50;99.90
18309;DHT22;9280;50.276;18.650;2022-11-14T00:36:31;4.60;99.90
18309;DHT22;9280;50.276;18.650;2022-11-14T00:39:36;4.60;99.90
18309;DHT22;9280;50.276;18.650;2022-11-14T00:42:41;4.60;99.90
18309;DHT22;9280;50.276;18.650;2022-11-14T00:45:48;4.60;99.90
18309;DHT22;9280;50.276;18.650;2022-11-14T00:48:52;4.60;99.90
18309;DHT22;9280;50.276;18.650;2022-11-14T00:51:57;4.60;99.90
18309;DHT22;9280;50.276;18.650;2022-11-14T00:55:03;4.60;99.90
18309;DHT22;9280;50.276;18.650;2022-11-14T00:58:08;4.60;99.90
18309;DHT22;9280;50.276;18.650;2022-11-14T01:01:15;4.50;99.90
18309;DHT22;9280;50.276;18.650;2022-11-14T01:04:19;4.50;99.90
18309;DHT22;9280;50.276;18.650;2022-11-14T01:07:24;4.60;99.90
18309;DHT22;9280;50.276;18.650;2022-11-14T01:10:28;4.60;99.90
18309;DHT22;9280;50.276;18.650;2022-11-14T01:13:33;4.60;99.90
18309;DHT22;9280;50.276;18.650;2022-11-14T01:16:39;4.50;99.90
18309;DHT22;9280;50.276;18.650;2022-11-14T01:19:43;4.50;99.90
18309;DHT22;9280;50.276;18.650;2022-11-14T01:22:48;4.50;99.90
18309;DHT22;9280;50.276;18.650;2022-11-14T01:25:53;4.60;99.90
18309;DHT22;9280;50.276;18.650;2022-11-14T01:28:57;4.60;99.90
18309;DHT22;9280;50.276;18.650;2022-11-14T01:32:04;4.60;99.90
18309;DHT22;9280;50.276;18.650;2022-11-14T01:35:08;4.60;99.90
18309;DHT22;9280;50.276;18.650;2022-11-14T01:38:14;4.50;99.90
18309;DHT22;9280;50.276;18.650;2022-11-14T01:41:20;4.50;99.90
18309;DHT22;9280;50.276;18.650;2022-11-14T01:44:43;4.50;99.90
18309;DHT22;9280;50.276;18.650;2022-11-14T01:47:49;4.50;99.90
18309;DHT22;9280;50.276;18.650;2022-11-14T01:50:56;4.40;99.90
18309;DHT22;9280;50.276;18.650;2022-11-14T01:54:04;4.40;99.90
18309;DHT22;9280;50.276;18.650;2022-11-14T01:57:11;4.40;99.90
18309;DHT22;9280;50.276;18.650;2022-11-14T02:00:20;4.40;99.90
18309;DHT22;9280;50.276;18.650;2022-11-14T02:03:27;4.50;99.90
18309;DHT22;9280;50.276;18.650;2022-11-14T02:06:32;4.50;99.90
18309;DHT22;9280;50.276;18.650;2022-11-14T02:09:40;4.50;99.90
18309;DHT22;9280;50.276;18.650;2022-11-14T02:12:45;4.50;99.90
18309;DHT22;9280;50.276;18.650;2022-11-14T02:15:51;4.50;99.90
18309;DHT22;9280;50.276;18.650;2022-11-14T02:18:57;4.50;99.90
18309;DHT22;9280;50.276;18.650;2022-11-14T02:22:03;4.50;99.90
18309;DHT22;9280;50.276;18.650;2022-11-14T02:25:09;4.40;99.90
18309;DHT22;9280;50.276;18.650;2022-11-14T02:28:17;4.40;99.90
18309;DHT22;9280;50.276;18.650;2022-11-14T02:31:23;4.40;99.90
18309;DHT22;9280;50.276;18.650;2022-11-14T02:34:28;4.40;99.90
18309;DHT22;9280;50.276;18.650;2022-11-14T02:37:34;4.40;99.90
18309;DHT22;9280;50.276;18.650;2022-11-14T02:40:39;4.40;99.90
18309;DHT22;9280;50.276;18.650;2022-11-14T02:43:43;4.40;99.90
18309;DHT22;9280;50.276;18.650;2022-11-14T02:46:48;4.40;99.90
18309;DHT22;9280;50.276;18.650;2022-11-14T02:49:54;4.50;99.90
18309;DHT22;9280;50.276;18.650;2022-11-14T02:53:00;4.50;99.90
18309;DHT22;9280;50.276;18.650;2022-11-14T02:56:06;4.50;99.90
18309;DHT22;9280;50.276;18.650;2022-11-14T02:59:10;4.50;99.90
18309;DHT22;9280;50.276;18.650;2022-11-14T03:02:15;4.50;99.90
18309;DHT22;9280;50.276;18.650;2022-11-14T03:05:20;4.50;99.90
18309;DHT22;9280;50.276;18.650;2022-11-14T03:08:26;4.40;99.90
18309;DHT22;9280;50.276;18.650;2022-11-14T03:11:31;4.40;99.90
18309;DHT22;9280;50.276;18.650;2022-11-14T03:14:36;4.40;99.90
18309;DHT22;9280;50.276;18.650;2022-11-14T03:17:40;4.40;99.90
18309;DHT22;9280;50.276;18.650;2022-11-14T03:20:45;4.40;99.90
18309;DHT22;9280;50.276;18.650;2022-11-14T03:23:51;4.50;99.90
18309;DHT22;9280;50.276;18.650;2022-11-14T03:26:56;4.50;99.90
18309;DHT22;9280;50.276;18.650;2022-11-14T03:30:01;4.50;99.90
18309;DHT22;9280;50.276;18.650;2022-11-14T03:33:05;4.40;99.90
18309;DHT22;9280;50.276;18.650;2022-11-14T03:36:10;4.50;99.90
18309;DHT22;9280;50.276;18.650;2022-11-14T03:39:16;4.40;99.90
18309;DHT22;9280;50.276;18.650;2022-11-14T03:42:21;4.40;99.90
18309;DHT22;9280;50.276;18.650;2022-11-14T03:45:26;4.30;99.90
18309;DHT22;9280;50.276;18.650;2022-11-14T03:48:31;4.40;99.90
18309;DHT22;9280;50.276;18.650;2022-11-14T03:51:35;4.40;99.90
18309;DHT22;9280;50.276;18.650;2022-11-14T03:54:42;4.40;99.90
18309;DHT22;9280;50.276;18.650;2022-11-14T03:57:47;4.40;99.90
18309;DHT22;9280;50.276;18.650;2022-11-14T04:00:51;4.40;99.90
18309;DHT22;9280;50.276;18.650;2022-11-14T04:03:58;4.40;99.90
18309;DHT22;9280;50.276;18.650;2022-11-14T04:07:03;4.40;99.90
18309;DHT22;9280;50.276;18.650;2022-11-14T04:10:09;4.40;99.90
18309;DHT22;9280;50.276;18.650;2022-11-14T04:13:17;4.40;99.90
18309;DHT22;9280;50.276;18.650;2022-11-14T04:16:22;4.40;99.90
18309;DHT22;9280;50.276;18.650;2022-11-14T04:19:27;4.40;99.90
18309;DHT22;9280;50.276;18.650;2022-11-14T04:22:31;4.40;99.90
18309;DHT22;9280;50.276;18.650;2022-11-14T04:25:37;4.40;99.90
18309;DHT22;9280;50.276;18.650;2022-11-14T04:28:42;4.40;99.90
18309;DHT22;9280;50.276;18.650;2022-11-14T04:31:47;4.40;99.90
18309;DHT22;9280;50.276;18.650;2022-11-14T04:34:51;4.40;99.90
18309;DHT22;9280;50.276;18.650;2022-11-14T04:37:56;4.40;99.90
18309;DHT22;9280;50.276;18.650;2022-11-14T04:41:02;4.40;99.90
18309;DHT22;9280;50.276;18.650;2022-11-14T04:44:07;4.40;99.90
18309;DHT22;9280;50.276;18.650;2022-11-14T04:47:11;4.50;99.90
18309;DHT22;9280;50.276;18.650;2022-11-14T04:50:16;4.50;99.90
18309;DHT22;9280;50.276;18.650;2022-11-14T04:53:21;4.50;99.90
18309;DHT22;9280;50.276;18.650;2022-11-14T04:56:27;4.50;99.90
18309;DHT22;9280;50.276;18.650;2022-11-14T04:59:31;4.50;99.90
18309;DHT22;9280;50.276;18.650;2022-11-14T05:02:36;4.40;99.90
18309;DHT22;9280;50.276;18.650;2022-11-14T05:05:40;4.40;99.90
18309;DHT22;9280;50.276;18.650;2022-11-14T05:08:44;4.40;99.90
18309;DHT22;9280;50.276;18.650;2022-11-14T05:11:51;4.30;99.90
18309;DHT22;9280;50.276;18.650;2022-11-14T05:14:56;4.30;99.90
18309;DHT22;9280;50.276;18.650;2022-11-14T05:18:01;4.30;99.90
18309;DHT22;9280;50.276;18.650;2022-11-14T05:21:09;4.20;99.90
18309;DHT22;9280;50.276;18.650;2022-11-14T05:24:14;4.20;99.90
18309;DHT22;9280;50.276;18.650;2022-11-14T05:27:20;4.20;99.90
18309;DHT22;9280;50.276;18.650;2022-11-14T05:30:25;4.20;99.90
18309;DHT22;9280;50.276;18.650;2022-11-14T05:33:29;4.20;99.90
18309;DHT22;9280;50.276;18.650;2022-11-14T05:36:35;4.20;99.90
18309;DHT22;9280;50.276;18.650;2022-11-14T05:39:39;4.20;99.90
18309;DHT22;9280;50.276;18.650;2022-11-14T05:42:46;4.20;99.90
18309;DHT22;9280;50.276;18.650;2022-11-14T05:45:50;4.20;99.90
18309;DHT22;9280;50.276;18.650;2022-11-14T05:48:57;4.20;99.90
18309;DHT22;9280;50.276;18.650;2022-11-14T05:52:02;4.20;99.90
18309;DHT22;9280;50.276;18.650;2022-11-14T05:55:08;4.20;99.90
18309;DHT22;9280;50.276;18.650;2022-11-14T05:58:14;4.20;99.90
18309;DHT22;9280;50.276;18.650;2022-11-14T06:01:19;4.30;99.90
18309;DHT22;9280;50.276;18.650;2022-11-14T06:04:24;4.30;99.90
18309;DHT22;9280;50.276;18.650;2022-11-14T06:07:29;4.30;99.90
18309;DHT22;9280;50.276;18.650;2022-11-14T06:10:35;4.30;99.90
18309;DHT22;9280;50.276;18.650;2022-11-14T06:13:41;4.30;99.90
18309;DHT22;9280;50.276;18.650;2022-11-14T06:16:46;4.40;99.90
18309;DHT22;9280;50.276;18.650;2022-11-14T06:19:51;4.40;99.90
18309;DHT22;9280;50.276;18.650;2022-11-14T06:22:56;4.40;99.90
18309;DHT22;9280;50.276;18.650;2022-11-14T06:26:02;4.50;99.90
18309;DHT22;9280;50.276;18.650;2022-11-14T06:29:10;4.50;99.90
18309;DHT22;9280;50.276;18.650;2022-11-14T06:32:15;4.50;99.90
18309;DHT22;9280;50.276;18.650;2022-11-14T06:35:19;4.50;99.90
18309;DHT22;9280;50.276;18.650;2022-11-14T06:38:24;4.50;99.90
18309;DHT22;9280;50.276;18.650;2022-11-14T06:41:29;4.50;99.90
18309;DHT22;9280;50.276;18.650;2022-11-14T06:44:35;4.50;99.90
18309;DHT22;9280;50.276;18.650;2022-11-14T06:47:40;4.60;99.90
18309;DHT22;9280;50.276;18.650;2022-11-14T06:50:50;4.70;99.90
18309;DHT22;9280;50.276;18.650;2022-11-14T06:53:56;4.70;99.90
18309;DHT22;9280;50.276;18.650;2022-11-14T06:57:01;4.70;99.90
18309;DHT22;9280;50.276;18.650;2022-11-14T07:00:08;4.70;99.90
18309;DHT22;9280;50.276;18.650;2022-11-14T07:03:13;4.70;99.90
18309;DHT22;9280;50.276;18.650;2022-11-14T07:06:19;4.80;99.90
18309;DHT22;9280;50.276;18.650;2022-11-14T07:09:25;4.90;99.90
18309;DHT22;9280;50.276;18.650;2022-11-14T07:12:30;5.00;99.90
18309;DHT22;9280;50.276;18.650;2022-11-14T07:15:36;5.10;99.90
18309;DHT22;9280;50.276;18.650;2022-11-14T07:18:42;5.10;99.90
18309;DHT22;9280;50.276;18.650;2022-11-14T07:21:46;5.10;99.90
18309;DHT22;9280;50.276;18.650;2022-11-14T07:24:51;5.10;99.90
18309;DHT22;9280;50.276;18.650;2022-11-14T07:27:56;5.10;99.90
18309;DHT22;9280;50.276;18.650;2022-11-14T07:31:04;5.10;99.90
18309;DHT22;9280;50.276;18.650;2022-11-14T07:34:09;5.20;99.90
18309;DHT22;9280;50.276;18.650;2022-11-14T07:37:14;5.20;99.90
18309;DHT22;9280;50.276;18.650;2022-11-14T07:40:18;5.20;99.90
18309;DHT22;9280;50.276;18.650;2022-11-14T07:43:23;5.30;99.90
18309;DHT22;9280;50.276;18.650;2022-11-14T07:46:30;5.40;99.90
18309;DHT22;9280;50.276;18.650;2022-11-14T07:49:34;5.50;99.90
18309;DHT22;9280;50.276;18.650;2022-11-14T07:52:39;5.50;99.90
18309;DHT22;9280;50.276;18.650;2022-11-14T07:55:44;5.60;99.90
18309;DHT22;9280;50.276;18.650;2022-11-14T07:58:48;5.60;99.90
18309;DHT22;9280;50.276;18.650;2022-11-14T08:01:55;5.60;99.90
18309;DHT22;9280;50.276;18.650;2022-11-14T08:04:59;5.70;99.90
18309;DHT22;9280;50.276;18.650;2022-11-14T08:08:04;5.80;99.90
18309;DHT22;9280;50.276;18.650;2022-11-14T08:11:09;5.90;99.90
18309;DHT22;9280;50.276;18.650;2022-11-14T08:14:14;6.10;99.90
18309;DHT22;9280;50.276;18.650;2022-11-14T08:17:20;6.10;99.90
18309;DHT22;9280;50.276;18.650;2022-11-14T08:20:26;6.20;99.90
18309;DHT22;9280;50.276;18.650;2022-11-14T08:23:30;6.20;99.90
18309;DHT22;9280;50.276;18.650;2022-11-14T08:26:35;6.20;99.90
18309;DHT22;9280;50.276;18.650;2022-11-14T08:29:41;6.20;99.90
18309;DHT22;9280;50.276;18.650;2022-11-14T08:32:48;6.10;99.90
18309;DHT22;9280;50.276;18.650;2022-11-14T08:35:52;6.10;99.90
18309;DHT22;9280;50.276;18.650;2022-11-14T08:38:57;6.10;99.90
18309;DHT22;9280;50.276;18.650;2022-11-14T08:42:01;6.10;99.90
18309;DHT22;9280;50.276;18.650;2022-11-14T08:45:06;6.20;99.90
18309;DHT22;9280;50.276;18.650;2022-11-14T08:48:13;6.30;99.90
18309;DHT22;9280;50.276;18.650;2022-11-14T08:51:18;6.50;99.90
18309;DHT22;9280;50.276;18.650;2022-11-14T08:54:22;6.60;99.90
18309;DHT22;9280;50.276;18.650;2022-11-14T08:57:27;6.80;99.90
18309;DHT22;9280;50.276;18.650;2022-11-14T09:00:31;6.90;99.90
18309;DHT22;9280;50.276;18.650;2022-11-14T09:03:37;7.00;99.90
18309;DHT22;9280;50.276;18.650;2022-11-14T09:06:42;6.90;99.90
18309;DHT22;9280;50.276;18.650;2022-11-14T09:09:48;7.00;99.90
18309;DHT22;9280;50.276;18.650;2022-11-14T09:12:54;7.10;99.90
18309;DHT22;9280;50.276;18.650;2022-11-14T09:15:59;7.30;99.90
18309;DHT22;9280;50.276;18.650;2022-11-14T09:19:06;7.50;99.90
18309;DHT22;9280;50.276;18.650;2022-11-14T09:22:11;7.60;99.90
18309;DHT22;9280;50.276;18.650;2022-11-14T09:25:16;7.70;99.90
18309;DHT22;9280;50.276;18.650;2022-11-14T09:28:21;7.60;99.90
18309;DHT22;9280;50.276;18.650;2022-11-14T09:31:26;7.60;99.90
18309;DHT22;9280;50.276;18.650;2022-11-14T09:34:33;7.50;99.90
18309;DHT22;9280;50.276;18.650;2022-11-14T09:37:39;7.60;99.90
18309;DHT22;9280;50.276;18.650;2022-11-14T09:40:53;7.60;99.90
18309;DHT22;9280;50.276;18.650;2022-11-14T09:44:27;7.70;99.90
18309;DHT22;9280;50.276;18.650;2022-11-14T09:47:40;7.70;99.90
18309;DHT22;9280;50.276;18.650;2022-11-14T09:50:58;7.90;99.90
18309;DHT22;9280;50.276;18.650;2022-11-14T09:54:15;8.00;99.90
18309;DHT22;9280;50.276;18.650;2022-11-14T09:57:22;8.10;99.90
18309;DHT22;9280;50.276;18.650;2022-11-14T10:00:36;8.10;99.90
18309;DHT22;9280;50.276;18.650;2022-11-14T10:03:50;8.10;99.90
18309;DHT22;9280;50.276;18.650;2022-11-14T10:07:01;8.30;99.90
18309;DHT22;9280;50.276;18.650;2022-11-14T10:10:29;8.40;99.90
18309;DHT22;9280;50.276;18.650;2022-11-14T10:13:50;8.60;99.90
18309;DHT22;9280;50.276;18.650;2022-11-14T10:17:06;8.50;99.90
18309;DHT22;9280;50.276;18.650;2022-11-14T10:20:22;8.60;99.90
18309;DHT22;9280;50.276;18.650;2022-11-14T10:23:41;8.60;99.90
18309;DHT22;9280;50.276;18.650;2022-11-14T10:26:56;8.70;99.90
18309;DHT22;9280;50.276;18.650;2022-11-14T10:30:08;8.50;99.90
18309;DHT22;9280;50.276;18.650;2022-11-14T10:33:25;8.60;99.90
18309;DHT22;9280;50.276;18.650;2022-11-14T10:36:48;8.60;99.90
18309;DHT22;9280;50.276;18.650;2022-11-14T10:40:03;8.70;99.90
18309;DHT22;9280;50.276;18.650;2022-11-14T10:43:19;8.60;99.90
18309;DHT22;9280;50.276;18.650;2022-11-14T10:46:27;8.60;99.90
18309;DHT22;9280;50.276;18.650;2022-11-14T10:49:34;8.70;99.90
18309;DHT22;9280;50.276;18.650;2022-11-14T10:52:41;9.10;99.90
18309;DHT22;9280;50.276;18.650;2022-11-14T10:55:50;9.50;99.90
18309;DHT22;9280;50.276;18.650;2022-11-14T10:59:00;9.50;99.90
18309;DHT22;9280;50.276;18.650;2022-11-14T11:02:04;9.40;99.90
18309;DHT22;9280;50.276;18.650;2022-11-14T11:05:14;9.30;99.90
18309;DHT22;9280;50.276;18.650;2022-11-14T11:08:21;9.40;99.90
18309;DHT22;9280;50.276;18.650;2022-11-14T11:11:52;9.60;99.90
18309;DHT22;9280;50.276;18.650;2022-11-14T11:15:13;9.50;99.90
18309;DHT22;9280;50.276;18.650;2022-11-14T11:18:26;9.50;99.90
18309;DHT22;9280;50.276;18.650;2022-11-14T11:21:46;9.70;99.90
18309;DHT22;9280;50.276;18.650;2022-11-14T11:24:51;10.00;99.90
18309;DHT22;9280;50.276;18.650;2022-11-14T11:28:12;10.50;99.90
18309;DHT22;9280;50.276;18.650;2022-11-14T11:31:20;10.70;99.90
18309;DHT22;9280;50.276;18.650;2022-11-14T11:34:26;10.80;99.90
18309;DHT22;9280;50.276;18.650;2022-11-14T11:37:34;10.60;99.90
18309;DHT22;9280;50.276;18.650;2022-11-14T11:40:43;10.40;99.90
18309;DHT22;9280;50.276;18.650;2022-11-14T11:43:54;10.40;99.90
18309;DHT22;9280;50.276;18.650;2022-11-14T11:47:02;10.30;99.90
18309;DHT22;9280;50.276;18.650;2022-11-14T11:50:14;10.20;99.90
18309;DHT22;9280;50.276;18.650;2022-11-14T11:53:23;10.40;99.90
18309;DHT22;9280;50.276;18.650;2022-11-14T11:56:30;10.20;99.90
18309;DHT22;9280;50.276;18.650;2022-11-14T11:59:41;10.00;99.90
18309;DHT22;9280;50.276;18.650;2022-11-14T12:02:49;10.60;99.90
18309;DHT22;9280;50.276;18.650;2022-11-14T12:06:05;13.00;99.90
18309;DHT22;9280;50.276;18.650;2022-11-14T12:09:17;16.20;99.90
18309;DHT22;9280;50.276;18.650;2022-11-14T12:12:30;18.80;99.90
18309;DHT22;9280;50.276;18.650;2022-11-14T12:15:48;20.80;95.10
18309;DHT22;9280;50.276;18.650;2022-11-14T12:19:23;22.30;79.50
18309;DHT22;9280;50.276;18.650;2022-11-14T12:22:49;23.20;67.90
18309;DHT22;9280;50.276;18.650;2022-11-14T12:26:08;24.80;57.60
18309;DHT22;9280;50.276;18.650;2022-11-14T12:29:39;25.90;48.20
18309;DHT22;9280;50.276;18.650;2022-11-14T12:32:53;26.40;44.50
18309;DHT22;9280;50.276;18.650;2022-11-14T12:36:00;27.10;42.60
18309;DHT22;9280;50.276;18.650;2022-11-14T12:39:18;27.70;41.30
18309;DHT22;9280;50.276;18.650;2022-11-14T12:42:24;28.10;38.20
18309;DHT22;9280;50.276;18.650;2022-11-14T12:45:55;28.30;37.50
18309;DHT22;9280;50.276;18.650;2022-11-14T12:49:37;28.50;36.70
18309;DHT22;9280;50.276;18.650;2022-11-14T12:52:47;29.20;35.60
18309;DHT22;9280;50.276;18.650;2022-11-14T12:55:54;29.30;34.70
18309;DHT22;9280;50.276;18.650;2022-11-14T12:59:22;29.50;33.80
18309;DHT22;9280;50.276;18.650;2022-11-14T13:06:23;29.60;33.10
18309;DHT22;9280;50.276;18.650;2022-11-14T13:09:37;29.40;32.40
18309;DHT22;9280;50.276;18.650;2022-11-14T13:12:56;29.50;32.40
18309;DHT22;9280;50.276;18.650;2022-11-14T13:16:25;29.40;31.90
18309;DHT22;9280;50.276;18.650;2022-11-14T13:19:50;28.50;33.10
18309;DHT22;9280;50.276;18.650;2022-11-14T13:27:25;28.40;32.30
18309;DHT22;9280;50.276;18.650;2022-11-14T13:31:06;28.10;32.50
18309;DHT22;9280;50.276;18.650;2022-11-14T13:34:41;27.40;33.50
18309;DHT22;9280;50.276;18.650;2022-11-14T13:38:02;26.70;34.40
18309;DHT22;9280;50.276;18.650;2022-11-14T13:41:35;26.60;35.40
18309;DHT22;9280;50.276;18.650;2022-11-14T13:45:16;26.20;35.90
18309;DHT22;9280;50.276;18.650;2022-11-14T13:48:53;26.20;35.80
18309;DHT22;9280;50.276;18.650;2022-11-14T13:52:02;25.80;36.20
18309;DHT22;9280;50.276;18.650;2022-11-14T13:55:18;25.40;36.80
18309;DHT22;9280;50.276;18.650;2022-11-14T13:58:33;24.90;37.30
18309;DHT22;9280;50.276;18.650;2022-11-14T14:01:56;24.40;38.40
18309;DHT22;9280;50.276;18.650;2022-11-14T14:05:16;23.70;39.80
18309;DHT22;9280;50.276;18.650;2022-11-14T14:08:38;22.80;41.20
18309;DHT22;9280;50.276;18.650;2022-11-14T14:11:54;22.10;42.10
18309;DHT22;9280;50.276;18.650;2022-11-14T14:15:11;21.20;44.10
18309;DHT22;9280;50.276;18.650;2022-11-14T14:18:25;20.30;46.30
18309;DHT22;9280;50.276;18.650;2022-11-14T14:21:40;19.50;49.00
18309;DHT22;9280;50.276;18.650;2022-11-14T14:24:52;18.60;51.00
18309;DHT22;9280;50.276;18.650;2022-11-14T14:28:04;17.00;54.40
18309;DHT22;9280;50.276;18.650;2022-11-14T14:31:15;15.50;58.20
18309;DHT22;9280;50.276;18.650;2022-11-14T14:34:27;14.30;64.60
18309;DHT22;9280;50.276;18.650;2022-11-14T14:37:32;13.20;73.70
18309;DHT22;9280;50.276;18.650;2022-11-14T14:40:39;12.20;84.30
18309;DHT22;9280;50.276;18.650;2022-11-14T14:43:51;11.40;92.60
18309;DHT22;9280;50.276;18.650;2022-11-14T14:46:57;10.50;99.20
18309;DHT22;9280;50.276;18.650;2022-11-14T14:50:05;9.80;99.90
18309;DHT22;9280;50.276;18.650;2022-11-14T14:53:19;9.10;99.90
18309;DHT22;9280;50.276;18.650;2022-11-14T14:56:24;8.50;99.90
18309;DHT22;9280;50.276;18.650;2022-11-14T14:59:30;8.00;99.90
18309;DHT22;9280;50.276;18.650;2022-11-14T15:02:35;7.60;99.90
18309;DHT22;9280;50.276;18.650;2022-11-14T15:05:41;7.30;99.90
18309;DHT22;9280;50.276;18.650;2022-11-14T15:08:47;7.20;99.90
18309;DHT22;9280;50.276;18.650;2022-11-14T15:11:56;7.20;99.90
18309;DHT22;9280;50.276;18.650;2022-11-14T15:15:02;7.10;99.90
18309;DHT22;9280;50.276;18.650;2022-11-14T15:18:17;7.10;99.90
18309;DHT22;9280;50.276;18.650;2022-11-14T15:21:25;7.10;99.90
18309;DHT22;9280;50.276;18.650;2022-11-14T15:24:31;7.00;99.90
18309;DHT22;9280;50.276;18.650;2022-11-14T15:27:44;7.00;99.90
18309;DHT22;9280;50.276;18.650;2022-11-14T15:30:57;6.90;99.90
18309;DHT22;9280;50.276;18.650;2022-11-14T15:34:04;6.90;99.90
18309;DHT22;9280;50.276;18.650;2022-11-14T15:37:22;6.80;99.90
18309;DHT22;9280;50.276;18.650;2022-11-14T15:40:27;6.70;99.90
18309;DHT22;9280;50.276;18.650;2022-11-14T15:43:35;6.70;99.90
18309;DHT22;9280;50.276;18.650;2022-11-14T15:46:47;6.60;99.90
18309;DHT22;9280;50.276;18.650;2022-11-14T15:49:56;6.50;99.90
18309;DHT22;9280;50.276;18.650;2022-11-14T15:53:04;6.40;99.90
18309;DHT22;9280;50.276;18.650;2022-11-14T15:56:11;6.40;99.90
18309;DHT22;9280;50.276;18.650;2022-11-14T15:59:16;6.30;99.90
18309;DHT22;9280;50.276;18.650;2022-11-14T16:02:24;6.20;99.90
18309;DHT22;9280;50.276;18.650;2022-11-14T16:05:30;6.20;99.90
18309;DHT22;9280;50.276;18.650;2022-11-14T16:08:37;6.20;99.90
18309;DHT22;9280;50.276;18.650;2022-11-14T16:11:42;6.20;99.90
18309;DHT22;9280;50.276;18.650;2022-11-14T16:14:47;6.10;99.90
18309;DHT22;9280;50.276;18.650;2022-11-14T16:17:51;6.10;99.90
18309;DHT22;9280;50.276;18.650;2022-11-14T16:20:56;6.10;99.90
18309;DHT22;9280;50.276;18.650;2022-11-14T16:24:03;6.00;99.90
18309;DHT22;9280;50.276;18.650;2022-11-14T16:27:08;6.00;99.90
18309;DHT22;9280;50.276;18.650;2022-11-14T16:30:15;5.90;99.90
18309;DHT22;9280;50.276;18.650;2022-11-14T16:33:20;5.90;99.90
18309;DHT22;9280;50.276;18.650;2022-11-14T16:36:25;5.90;99.90
18309;DHT22;9280;50.276;18.650;2022-11-14T16:39:31;5.80;99.90
18309;DHT22;9280;50.276;18.650;2022-11-14T16:42:36;5.70;99.90
18309;DHT22;9280;50.276;18.650;2022-11-14T16:45:40;5.80;99.90
18309;DHT22;9280;50.276;18.650;2022-11-14T16:48:45;5.70;99.90
18309;DHT22;9280;50.276;18.650;2022-11-14T16:51:50;5.60;99.90
18309;DHT22;9280;50.276;18.650;2022-11-14T16:54:59;5.60;99.90
18309;DHT22;9280;50.276;18.650;2022-11-14T16:58:04;5.60;99.90
18309;DHT22;9280;50.276;18.650;2022-11-14T17:01:13;5.60;99.90
18309;DHT22;9280;50.276;18.650;2022-11-14T17:04:18;5.50;99.90
18309;DHT22;9280;50.276;18.650;2022-11-14T17:07:23;5.40;99.90
18309;DHT22;9280;50.276;18.650;2022-11-14T17:10:29;5.40;99.90
18309;DHT22;9280;50.276;18.650;2022-11-14T17:13:33;5.30;99.90
18309;DHT22;9280;50.276;18.650;2022-11-14T17:16:39;5.30;99.90
18309;DHT22;9280;50.276;18.650;2022-11-14T17:19:43;5.20;99.90
18309;DHT22;9280;50.276;18.650;2022-11-14T17:22:49;5.20;99.90
18309;DHT22;9280;50.276;18.650;2022-11-14T17:26:01;5.10;99.90
18309;DHT22;9280;50.276;18.650;2022-11-14T17:29:05;5.10;99.90
18309;DHT22;9280;50.276;18.650;2022-11-14T17:32:10;5.10;99.90
18309;DHT22;9280;50.276;18.650;2022-11-14T17:35:16;5.00;99.90
18309;DHT22;9280;50.276;18.650;2022-11-14T17:38:21;5.00;99.90
18309;DHT22;9280;50.276;18.650;2022-11-14T17:41:27;5.00;99.90
18309;DHT22;9280;50.276;18.650;2022-11-14T17:44:31;5.00;99.90
18309;DHT22;9280;50.276;18.650;2022-11-14T17:47:36;5.10;99.90
18309;DHT22;9280;50.276;18.650;2022-11-14T17:50:40;5.10;99.90
18309;DHT22;9280;50.276;18.650;2022-11-14T17:53:45;5.10;99.90
18309;DHT22;9280;50.276;18.650;2022-11-14T17:56:51;5.10;99.90
18309;DHT22;9280;50.276;18.650;2022-11-14T17:59:55;5.00;99.90
18309;DHT22;9280;50.276;18.650;2022-11-14T18:03:00;5.00;99.90
18309;DHT22;9280;50.276;18.650;2022-11-14T18:06:05;4.90;99.90
18309;DHT22;9280;50.276;18.650;2022-11-14T18:09:10;4.80;99.90
18309;DHT22;9280;50.276;18.650;2022-11-14T18:12:16;4.90;99.90
18309;DHT22;9280;50.276;18.650;2022-11-14T18:15:21;4.90;99.90
18309;DHT22;9280;50.276;18.650;2022-11-14T18:18:28;4.80;99.90
18309;DHT22;9280;50.276;18.650;2022-11-14T18:21:33;4.80;99.90
18309;DHT22;9280;50.276;18.650;2022-11-14T18:24:37;4.80;99.90
18309;DHT22;9280;50.276;18.650;2022-11-14T18:27:46;4.80;99.90
18309;DHT22;9280;50.276;18.650;2022-11-14T18:30:54;4.80;99.90
18309;DHT22;9280;50.276;18.650;2022-11-14T18:33:58;4.80;99.90
18309;DHT22;9280;50.276;18.650;2022-11-14T18:37:05;4.90;99.90
18309;DHT22;9280;50.276;18.650;2022-11-14T18:40:10;4.80;99.90
18309;DHT22;9280;50.276;18.650;2022-11-14T18:43:17;4.80;99.90
18309;DHT22;9280;50.276;18.650;2022-11-14T18:46:23;4.80;99.90
18309;DHT22;9280;50.276;18.650;2022-11-14T18:49:28;4.80;99.90
18309;DHT22;9280;50.276;18.650;2022-11-14T18:52:33;4.80;99.90
18309;DHT22;9280;50.276;18.650;2022-11-14T18:55:39;4.90;99.90
18309;DHT22;9280;50.276;18.650;2022-11-14T18:58:46;4.80;99.90
18309;DHT22;9280;50.276;18.650;2022-11-14T19:01:51;4.90;99.90
18309;DHT22;9280;50.276;18.650;2022-11-14T19:04:56;4.80;99.90
18309;DHT22;9280;50.276;18.650;2022-11-14T19:08:00;4.80;99.90
18309;DHT22;9280;50.276;18.650;2022-11-14T19:11:09;4.80;99.90
18309;DHT22;9280;50.276;18.650;2022-11-14T19:14:36;4.80;99.90
18309;DHT22;9280;50.276;18.650;2022-11-14T19:17:41;4.80;99.90
18309;DHT22;9280;50.276;18.650;2022-11-14T19:20:55;4.80;99.90
18309;DHT22;9280;50.276;18.650;2022-11-14T19:24:00;4.80;99.90
18309;DHT22;9280;50.276;18.650;2022-11-14T19:27:05;4.80;99.90
18309;DHT22;9280;50.276;18.650;2022-11-14T19:30:12;4.70;99.90
18309;DHT22;9280;50.276;18.650;2022-11-14T19:33:17;4.80;99.90
18309;DHT22;9280;50.276;18.650;2022-11-14T19:36:22;4.80;99.90
18309;DHT22;9280;50.276;18.650;2022-11-14T19:39:27;4.80;99.90
18309;DHT22;9280;50.276;18.650;2022-11-14T19:42:33;4.80;99.90
18309;DHT22;9280;50.276;18.650;2022-11-14T19:45:39;4.80;99.90
18309;DHT22;9280;50.276;18.650;2022-11-14T19:48:43;4.90;99.90
18309;DHT22;9280;50.276;18.650;2022-11-14T19:51:49;4.90;99.90
18309;DHT22;9280;50.276;18.650;2022-11-14T19:54:54;4.90;99.90
18309;DHT22;9280;50.276;18.650;2022-11-14T19:57:58;4.90;99.90
18309;DHT22;9280;50.276;18.650;2022-11-14T20:01:06;4.90;99.90
18309;DHT22;9280;50.276;18.650;2022-11-14T20:04:12;4.90;99.90
18309;DHT22;9280;50.276;18.650;2022-11-14T20:07:17;4.80;99.90
18309;DHT22;9280;50.276;18.650;2022-11-14T20:10:22;4.80;99.90
18309;DHT22;9280;50.276;18.650;2022-11-14T20:13:29;4.80;99.90
18309;DHT22;9280;50.276;18.650;2022-11-14T20:16:36;4.80;99.90